Euclid, Minnesota
Current Conditions -  °F | °C
As of 3:14 AM on Monday 22 Dec 2014 (Local Time) from KCKN Reporting Station
Unknown Precip Unknown Precip  
Wind Chill: 29°   Ceiling: 1900
Heat Index: 36°   Visibility: 4mi
Dew Point: 34°   Wind: 8mph
Humidity: 93%   Direction: 130°SE
Pressure: 29.55"   Gusts: NA
Location:  47.97°N, 96.64°W
Report Text: KCKN 220914Z AUTO 13007KT 4SM UP SCT012 BKN019 02/01 A2955 RMK AO2
Loading
Personal Weather Stations






























Interactive Weather Map New forecast layout! Learn more

10-Day Weather Forecast

Advertisements
Track Severe Weather on mobile